METAR Data
IDs: Format: Raw Decoded Include TAF

Data at: 1345 UTC 26 Feb 2021

LEGE 261330Z 20003KT 140V260 9999 FEW025 17/10 Q1029